createdAt,value
2017-09-09T00:00:33.814Z,55.80
2017-09-09T00:03:02.829Z,55.70
2017-09-09T00:05:30.991Z,55.70
2017-09-09T00:07:59.159Z,55.50
2017-09-09T00:10:28.949Z,55.60
2017-09-09T00:12:57.106Z,55.50
2017-09-09T00:15:26.035Z,55.20
2017-09-09T00:17:54.226Z,55.20
2017-09-09T00:20:22.391Z,55.30
2017-09-09T00:22:50.581Z,55.40
2017-09-09T00:25:18.746Z,56.00
2017-09-09T00:27:46.917Z,56.30
2017-09-09T00:30:15.111Z,56.10
2017-09-09T00:32:43.263Z,55.80
2017-09-09T00:35:11.434Z,55.50
2017-09-09T00:37:39.609Z,55.40
2017-09-09T00:40:08.869Z,55.60
2017-09-09T00:42:37.035Z,55.70
2017-09-09T00:45:05.192Z,55.50
2017-09-09T00:47:33.365Z,55.70
2017-09-09T00:50:02.312Z,56.10
2017-09-09T00:52:30.486Z,55.90
2017-09-09T00:54:58.649Z,56.30
2017-09-09T00:57:27.810Z,56.30
2017-09-09T00:59:55.994Z,56.70
2017-09-09T01:02:24.161Z,56.80
2017-09-09T01:04:52.770Z,56.20
2017-09-09T01:07:20.950Z,56.50
2017-09-09T01:09:49.114Z,56.90
2017-09-09T01:12:17.291Z,56.70
2017-09-09T01:14:45.454Z,56.60
2017-09-09T01:17:14.615Z,56.20
2017-09-09T01:19:43.352Z,56.40
2017-09-09T01:22:11.543Z,56.10
2017-09-09T01:24:39.715Z,56.00
2017-09-09T01:27:07.883Z,55.90
2017-09-09T01:29:36.047Z,55.70
2017-09-09T01:32:04.215Z,55.80
2017-09-09T01:34:32.395Z,55.90
2017-09-09T01:37:00.551Z,56.30
2017-09-09T01:39:28.734Z,56.60
2017-09-09T01:41:56.887Z,56.70
2017-09-09T01:44:25.060Z,57.40
2017-09-09T01:46:53.237Z,58.20
2017-09-09T01:49:21.412Z,58.30
2017-09-09T01:51:50.326Z,58.50
2017-09-09T01:54:18.507Z,58.40
2017-09-09T01:56:46.671Z,58.00
2017-09-09T01:59:14.824Z,57.70
2017-09-09T02:01:43.007Z,57.30
2017-09-09T02:04:11.162Z,58.20
2017-09-09T02:06:40.105Z,58.10
2017-09-09T02:09:08.277Z,58.70
2017-09-09T02:11:36.444Z,58.70
2017-09-09T02:14:04.621Z,58.40
2017-09-09T02:16:32.775Z,58.70
2017-09-09T02:19:00.954Z,58.20
2017-09-09T02:21:29.113Z,58.30
2017-09-09T02:23:57.277Z,58.50
2017-09-09T02:26:26.924Z,58.80
2017-09-09T02:28:55.078Z,58.70
2017-09-09T02:31:24.011Z,59.00
2017-09-09T02:33:52.933Z,58.90
2017-09-09T02:36:21.864Z,59.40
2017-09-09T02:38:50.048Z,59.40
2017-09-09T02:41:18.233Z,59.50
2017-09-09T02:43:46.408Z,59.60
2017-09-09T02:46:14.581Z,60.50
2017-09-09T02:48:42.753Z,59.90
2017-09-09T02:51:10.916Z,59.70
2017-09-09T02:53:39.093Z,59.90
2017-09-09T02:56:07.271Z,60.60
2017-09-09T02:58:35.502Z,60.60
2017-09-09T03:01:03.733Z,60.80
2017-09-09T03:03:31.888Z,60.00
2017-09-09T03:06:01.011Z,59.50
2017-09-09T03:08:29.178Z,59.00
2017-09-09T03:10:57.334Z,59.10
2017-09-09T03:13:25.496Z,58.80
2017-09-09T03:15:53.649Z,59.10
2017-09-09T03:18:22.746Z,59.60
2017-09-09T03:20:51.096Z,59.50
2017-09-09T03:23:19.251Z,59.30
2017-09-09T03:25:47.409Z,59.00
2017-09-09T03:28:16.347Z,58.60
2017-09-09T03:30:45.279Z,58.50
2017-09-09T03:33:13.416Z,58.50
2017-09-09T03:35:42.335Z,58.70
2017-09-09T03:38:10.510Z,58.70
2017-09-09T03:40:38.687Z,58.20
2017-09-09T03:43:07.552Z,58.30
2017-09-09T03:45:36.459Z,58.40
2017-09-09T03:48:05.788Z,58.30
2017-09-09T03:50:33.965Z,58.30
2017-09-09T03:53:02.151Z,58.50
2017-09-09T03:55:30.304Z,58.50
2017-09-09T03:57:58.472Z,58.80
2017-09-09T04:00:26.657Z,58.60
2017-09-09T04:02:54.821Z,58.40
2017-09-09T04:05:22.979Z,58.70
2017-09-09T04:07:51.154Z,58.50
2017-09-09T04:10:19.319Z,58.50
2017-09-09T04:12:47.494Z,58.80
2017-09-09T04:15:15.642Z,58.50
2017-09-09T04:17:43.817Z,58.30
2017-09-09T04:20:12.024Z,58.10
2017-09-09T04:22:40.201Z,58.20
2017-09-09T04:25:08.378Z,58.10
2017-09-09T04:27:36.533Z,58.30
2017-09-09T04:30:04.708Z,58.50
2017-09-09T04:32:32.880Z,58.60
2017-09-09T04:35:01.050Z,58.80
2017-09-09T04:37:29.226Z,58.80
2017-09-09T04:39:57.933Z,58.50
2017-09-09T04:42:26.078Z,58.70
2017-09-09T04:44:54.248Z,60.90
2017-09-09T04:47:22.413Z,61.60
2017-09-09T04:49:50.584Z,60.90
2017-09-09T04:52:18.778Z,60.60
2017-09-09T04:54:47.678Z,60.70
2017-09-09T04:57:15.858Z,60.70
2017-09-09T04:59:44.044Z,60.90
2017-09-09T05:02:12.197Z,61.10
2017-09-09T05:04:40.359Z,62.00
2017-09-09T05:07:08.513Z,62.50
2017-09-09T05:09:36.677Z,62.90
2017-09-09T05:12:04.861Z,64.20
2017-09-09T05:14:34.861Z,64.00
2017-09-09T05:17:04.991Z,64.20
2017-09-09T05:19:33.942Z,63.10
2017-09-09T05:22:02.130Z,63.10
2017-09-09T05:24:30.330Z,63.20
2017-09-09T05:26:59.260Z,62.20
2017-09-09T05:29:27.429Z,62.20
2017-09-09T05:31:55.595Z,62.10
2017-09-09T05:34:23.776Z,61.80
2017-09-09T05:36:51.951Z,61.90
2017-09-09T05:39:20.116Z,62.20
2017-09-09T05:41:48.585Z,62.50
2017-09-09T05:44:17.502Z,62.80
2017-09-09T05:46:45.675Z,62.70
2017-09-09T05:49:13.849Z,62.60
2017-09-09T05:51:42.021Z,62.90
2017-09-09T05:54:10.205Z,63.20
2017-09-09T05:56:38.395Z,63.20
2017-09-09T05:59:06.567Z,63.60
2017-09-09T06:01:35.703Z,63.60
2017-09-09T06:04:04.662Z,63.70
2017-09-09T06:06:32.818Z,63.60
2017-09-09T06:09:01.011Z,63.90
2017-09-09T06:11:29.164Z,63.90
2017-09-09T06:13:58.113Z,64.50
2017-09-09T06:16:26.292Z,64.20
2017-09-09T06:18:54.461Z,64.80
2017-09-09T06:21:22.680Z,64.40
2017-09-09T06:23:50.859Z,63.90
2017-09-09T06:26:19.061Z,64.60
2017-09-09T06:28:47.344Z,64.60
2017-09-09T06:31:16.294Z,64.70
2017-09-09T06:33:44.489Z,64.50
2017-09-09T06:36:12.634Z,65.00
2017-09-09T06:38:40.818Z,64.60
2017-09-09T06:41:09.088Z,65.20
2017-09-09T06:43:37.376Z,66.10
2017-09-09T06:46:05.611Z,66.80
2017-09-09T06:48:34.620Z,67.50
2017-09-09T06:51:02.772Z,67.50
2017-09-09T06:53:31.745Z,67.70
2017-09-09T06:56:00.680Z,68.70
2017-09-09T06:58:28.901Z,68.70
2017-09-09T07:00:57.147Z,69.90
2017-09-09T07:03:25.338Z,70.50
2017-09-09T07:05:53.594Z,70.80
2017-09-09T07:08:22.539Z,71.20
2017-09-09T07:10:50.931Z,71.20
2017-09-09T07:13:19.154Z,72.20
2017-09-09T07:15:47.488Z,72.60
2017-09-09T07:18:16.578Z,73.90
2017-09-09T07:20:44.997Z,73.30
2017-09-09T07:23:13.936Z,73.60
2017-09-09T07:25:42.139Z,73.60
2017-09-09T07:28:10.330Z,73.50
2017-09-09T07:30:38.493Z,73.70
2017-09-09T07:33:06.695Z,73.20
2017-09-09T07:35:34.866Z,73.70
2017-09-09T07:38:03.050Z,73.20
2017-09-09T07:40:31.221Z,73.20
2017-09-09T07:42:59.443Z,73.20
2017-09-09T07:45:27.630Z,73.10
2017-09-09T07:47:57.539Z,74.80
2017-09-09T07:50:26.609Z,75.90
2017-09-09T07:52:54.793Z,75.80
2017-09-09T07:55:24.894Z,74.40
2017-09-09T07:57:53.098Z,75.00
2017-09-09T08:00:21.324Z,75.60
2017-09-09T08:02:49.513Z,76.10
2017-09-09T08:05:17.875Z,75.80
2017-09-09T08:07:46.053Z,76.80
2017-09-09T08:10:14.255Z,77.90
2017-09-09T08:12:42.481Z,77.50
2017-09-09T08:15:10.661Z,78.40
2017-09-09T08:17:38.874Z,79.40
2017-09-09T08:20:08.001Z,79.60
2017-09-09T08:22:36.187Z,79.20
2017-09-09T08:25:05.563Z,79.60
2017-09-09T08:27:33.767Z,79.50
2017-09-09T08:30:02.081Z,80.40
2017-09-09T08:32:31.038Z,79.60
2017-09-09T08:34:59.314Z,79.50
2017-09-09T08:37:27.611Z,79.50
2017-09-09T08:39:55.967Z,79.10
2017-09-09T08:42:24.917Z,78.80
2017-09-09T08:44:53.119Z,78.70
2017-09-09T08:47:21.317Z,79.10
2017-09-09T08:49:49.494Z,79.00
2017-09-09T08:52:17.663Z,79.20
2017-09-09T08:54:46.606Z,78.70
2017-09-09T08:57:14.798Z,78.50
2017-09-09T08:59:43.179Z,78.50
2017-09-09T09:02:11.342Z,79.00
2017-09-09T09:04:39.535Z,78.50
2017-09-09T09:07:07.748Z,78.30
2017-09-09T09:09:35.897Z,78.80
2017-09-09T09:12:04.866Z,79.10
2017-09-09T09:14:33.602Z,79.00
2017-09-09T09:17:01.770Z,78.50
2017-09-09T09:19:29.975Z,78.30
2017-09-09T09:21:58.188Z,79.00
2017-09-09T09:24:27.943Z,78.90
2017-09-09T09:26:56.124Z,79.00
2017-09-09T09:29:24.302Z,78.90
2017-09-09T09:31:52.468Z,78.80
2017-09-09T09:34:20.704Z,79.80
2017-09-09T09:36:48.876Z,80.00
2017-09-09T09:39:17.074Z,80.40
2017-09-09T09:41:46.008Z,79.60
2017-09-09T09:44:15.082Z,79.50
2017-09-09T09:46:43.263Z,80.50
2017-09-09T09:49:12.204Z,81.50
2017-09-09T09:51:40.390Z,81.50
2017-09-09T09:54:08.584Z,79.40
2017-09-09T09:56:36.790Z,79.40
2017-09-09T09:59:05.064Z,79.20
2017-09-09T10:01:33.255Z,79.80
2017-09-09T10:04:02.423Z,79.70
2017-09-09T10:06:30.609Z,77.80
2017-09-09T10:08:58.805Z,78.50
2017-09-09T10:11:26.985Z,79.10
2017-09-09T10:13:55.178Z,78.50
2017-09-09T10:16:23.346Z,78.20
2017-09-09T10:18:51.546Z,77.00
2017-09-09T10:21:19.715Z,77.60
2017-09-09T10:23:50.563Z,77.50
2017-09-09T10:26:18.746Z,78.40
2017-09-09T10:28:47.891Z,78.00
2017-09-09T10:31:16.838Z,76.60
2017-09-09T10:33:46.322Z,76.60
2017-09-09T10:36:14.498Z,77.00
2017-09-09T10:38:42.983Z,75.60
2017-09-09T10:41:11.169Z,75.50
2017-09-09T10:43:40.555Z,75.50
2017-09-09T10:46:08.747Z,76.00
2017-09-09T10:48:36.888Z,75.00
2017-09-09T10:51:05.344Z,75.10
2017-09-09T10:53:34.275Z,75.20
2017-09-09T10:56:02.481Z,74.60
2017-09-09T10:58:31.397Z,71.00
2017-09-09T11:00:59.617Z,71.00
2017-09-09T11:03:28.804Z,70.90
2017-09-09T11:05:56.979Z,71.40
2017-09-09T11:08:25.168Z,70.80
2017-09-09T11:10:53.446Z,70.90
2017-09-09T11:13:21.612Z,70.40
2017-09-09T11:15:49.795Z,70.20
2017-09-09T11:18:18.072Z,69.10
2017-09-09T11:20:46.233Z,68.80
2017-09-09T11:23:15.193Z,69.10
2017-09-09T11:25:44.133Z,69.50
2017-09-09T11:28:12.335Z,69.50
2017-09-09T11:30:42.031Z,67.40
2017-09-09T11:33:11.332Z,67.30
2017-09-09T11:35:39.490Z,68.40
2017-09-09T11:38:07.806Z,67.50
2017-09-09T11:40:35.954Z,67.80
2017-09-09T11:43:04.157Z,67.80
2017-09-09T11:45:32.398Z,66.60
2017-09-09T11:48:00.644Z,66.80
2017-09-09T11:50:29.033Z,67.60
2017-09-09T11:52:57.294Z,64.50
2017-09-09T11:55:26.356Z,63.10
2017-09-09T11:57:54.548Z,63.10
2017-09-09T12:00:23.571Z,61.70
2017-09-09T12:02:52.288Z,62.20
2017-09-09T12:05:20.497Z,61.10
2017-09-09T12:07:48.696Z,61.50
2017-09-09T12:10:16.929Z,62.20
2017-09-09T12:12:45.076Z,61.80
2017-09-09T12:15:14.162Z,60.20
2017-09-09T12:17:43.223Z,60.20
2017-09-09T12:20:12.593Z,60.40
2017-09-09T12:22:40.828Z,60.30
2017-09-09T12:25:08.999Z,59.10
2017-09-09T12:27:37.223Z,58.90
2017-09-09T12:30:05.387Z,59.10
2017-09-09T12:32:34.337Z,62.20
2017-09-09T12:35:02.537Z,62.20
2017-09-09T12:37:30.721Z,61.60
2017-09-09T12:39:59.747Z,61.90
2017-09-09T12:42:27.937Z,62.40
2017-09-09T12:44:57.061Z,62.40
2017-09-09T12:47:25.233Z,60.20
2017-09-09T12:49:53.422Z,59.40
2017-09-09T12:52:21.598Z,60.00
2017-09-09T12:54:49.786Z,59.40
2017-09-09T12:57:18.906Z,59.50
2017-09-09T12:59:47.871Z,59.00
2017-09-09T13:02:16.179Z,58.40
2017-09-09T13:04:44.323Z,58.80
2017-09-09T13:07:12.502Z,59.20
2017-09-09T13:09:40.691Z,59.30
2017-09-09T13:12:09.533Z,59.00
2017-09-09T13:14:37.691Z,58.90
2017-09-09T13:17:05.865Z,59.20
2017-09-09T13:19:34.869Z,61.00
2017-09-09T13:22:04.538Z,59.80
2017-09-09T13:24:32.722Z,59.20
2017-09-09T13:27:01.094Z,59.20
2017-09-09T13:29:30.281Z,58.00
2017-09-09T13:31:58.658Z,57.50
2017-09-09T13:34:26.838Z,56.60
2017-09-09T13:36:55.111Z,57.30
2017-09-09T13:39:23.326Z,56.60
2017-09-09T13:41:52.296Z,58.00
2017-09-09T13:44:20.471Z,57.50
2017-09-09T13:46:49.102Z,58.00
2017-09-09T13:49:17.300Z,58.30
2017-09-09T13:51:45.495Z,57.70
2017-09-09T13:54:13.665Z,58.70
2017-09-09T13:56:42.114Z,59.10
2017-09-09T13:59:11.031Z,58.50
2017-09-09T14:01:39.412Z,58.80
2017-09-09T14:04:07.578Z,58.00
2017-09-09T14:06:35.771Z,57.10
2017-09-09T14:09:08.124Z,57.00
2017-09-09T14:11:37.778Z,56.90
2017-09-09T14:14:05.960Z,56.90
2017-09-09T14:16:34.180Z,57.50
2017-09-09T14:19:02.337Z,57.50
2017-09-09T14:21:32.117Z,58.50
2017-09-09T14:24:00.302Z,58.50
2017-09-09T14:26:28.591Z,58.30
2017-09-09T14:28:56.774Z,57.80
2017-09-09T14:31:24.999Z,57.80
2017-09-09T14:33:53.279Z,58.40
2017-09-09T14:36:21.448Z,57.90
2017-09-09T14:38:49.638Z,58.50
2017-09-09T14:41:17.831Z,58.20
2017-09-09T14:43:46.026Z,57.60
2017-09-09T14:46:14.195Z,57.60
2017-09-09T14:48:42.399Z,58.00
2017-09-09T14:51:10.573Z,57.80
2017-09-09T14:53:38.760Z,59.00
2017-09-09T14:56:07.007Z,59.30
2017-09-09T14:58:35.617Z,59.40
2017-09-09T15:01:04.554Z,59.80
2017-09-09T15:03:32.741Z,59.20
2017-09-09T15:06:01.855Z,59.50
2017-09-09T15:08:30.058Z,59.70
2017-09-09T15:10:58.260Z,59.20
2017-09-09T15:13:26.481Z,59.70
2017-09-09T15:15:54.642Z,60.50
2017-09-09T15:18:22.822Z,59.60
2017-09-09T15:20:51.853Z,58.40
2017-09-09T15:23:20.041Z,58.40
2017-09-09T15:25:48.342Z,58.40
2017-09-09T15:28:17.422Z,59.00
2017-09-09T15:30:45.630Z,57.90
2017-09-09T15:33:14.056Z,58.00
2017-09-09T15:35:42.799Z,58.00
2017-09-09T15:38:11.726Z,57.30
2017-09-09T15:40:41.604Z,57.80
2017-09-09T15:43:09.795Z,57.80
2017-09-09T15:45:38.004Z,58.80
2017-09-09T15:48:06.177Z,59.10
2017-09-09T15:50:34.351Z,58.90
2017-09-09T15:53:03.518Z,58.90
2017-09-09T15:55:31.716Z,59.40
2017-09-09T15:57:59.946Z,59.70
2017-09-09T16:00:28.092Z,59.10
2017-09-09T16:05:50.195Z,58.60
2017-09-09T16:08:18.373Z,59.00
2017-09-09T16:10:46.550Z,59.40
2017-09-09T16:13:15.512Z,59.30
2017-09-09T16:15:43.767Z,59.30
2017-09-09T16:18:12.686Z,59.80
2017-09-09T16:20:40.865Z,59.20
2017-09-09T16:23:09.293Z,59.50
2017-09-09T16:25:38.658Z,59.20
2017-09-09T16:28:06.864Z,59.20
2017-09-09T16:30:35.080Z,59.60
2017-09-09T16:33:03.268Z,59.80
2017-09-09T16:35:31.462Z,60.40
2017-09-09T16:37:59.633Z,61.20
2017-09-09T16:40:27.840Z,60.60
2017-09-09T16:42:56.018Z,60.30
2017-09-09T16:45:25.088Z,60.50
2017-09-09T16:47:53.284Z,60.90
2017-09-09T16:50:21.460Z,61.00
2017-09-09T16:52:49.643Z,61.30
2017-09-09T16:55:17.796Z,61.60
2017-09-09T16:57:47.683Z,61.70
2017-09-09T17:00:15.853Z,61.70
2017-09-09T17:02:44.005Z,61.50
2017-09-09T17:05:12.204Z,62.00
2017-09-09T17:07:40.388Z,62.00
2017-09-09T17:10:08.590Z,62.70
2017-09-09T17:12:37.185Z,62.40
2017-09-09T17:15:05.378Z,62.50
2017-09-09T17:17:38.156Z,62.20
2017-09-09T17:20:06.708Z,62.00
2017-09-09T17:22:34.934Z,62.20
2017-09-09T17:25:03.129Z,62.60
2017-09-09T17:27:31.873Z,63.20
2017-09-09T17:30:00.807Z,63.60
2017-09-09T17:32:28.977Z,63.60
2017-09-09T17:34:57.139Z,63.30
2017-09-09T17:37:25.326Z,63.20
2017-09-09T17:39:53.496Z,62.90
2017-09-09T17:42:21.664Z,62.70
2017-09-09T17:44:49.853Z,62.80
2017-09-09T17:47:18.042Z,62.70
2017-09-09T17:49:46.895Z,63.00
2017-09-09T17:52:15.041Z,63.10
2017-09-09T17:54:43.243Z,63.10
2017-09-09T17:57:12.551Z,62.90
2017-09-09T17:59:40.997Z,63.10
2017-09-09T18:02:09.176Z,63.00
2017-09-09T18:04:38.913Z,63.00
2017-09-09T18:07:07.431Z,63.00
2017-09-09T18:09:35.615Z,62.80
2017-09-09T18:12:03.783Z,62.90
2017-09-09T18:14:32.790Z,63.20
2017-09-09T18:17:00.972Z,63.20
2017-09-09T18:19:30.753Z,62.80
2017-09-09T18:21:58.969Z,62.80
2017-09-09T18:24:27.180Z,62.80
2017-09-09T18:26:55.411Z,62.80
2017-09-09T18:29:23.601Z,63.00
2017-09-09T18:31:51.774Z,63.30
2017-09-09T18:34:20.972Z,63.30
2017-09-09T18:36:49.109Z,63.30
2017-09-09T18:39:17.309Z,63.60
2017-09-09T18:41:45.462Z,63.50
2017-09-09T18:44:13.649Z,63.60
2017-09-09T18:46:41.820Z,63.30
2017-09-09T18:49:09.992Z,64.00
2017-09-09T18:51:38.193Z,64.20
2017-09-09T18:54:06.343Z,64.30
2017-09-09T18:56:34.539Z,65.40
2017-09-09T18:59:02.724Z,65.00
2017-09-09T19:01:30.898Z,65.30
2017-09-09T19:03:59.072Z,65.30
2017-09-09T19:06:27.263Z,65.30
2017-09-09T19:08:55.457Z,65.20
2017-09-09T19:11:24.389Z,65.20
2017-09-09T19:13:52.560Z,65.20
2017-09-09T19:16:21.273Z,65.20
2017-09-09T19:18:49.431Z,65.40
2017-09-09T19:21:17.626Z,65.20
2017-09-09T19:23:46.767Z,65.30
2017-09-09T19:26:14.980Z,65.50
2017-09-09T19:28:43.150Z,65.30
2017-09-09T19:31:11.828Z,65.80
2017-09-09T19:33:40.960Z,66.70
2017-09-09T19:36:09.934Z,66.80
2017-09-09T19:38:38.104Z,66.80
2017-09-09T19:41:06.275Z,66.50
2017-09-09T19:43:34.453Z,67.00
2017-09-09T19:46:02.637Z,67.60
2017-09-09T19:48:31.728Z,68.20
2017-09-09T19:51:00.685Z,67.70
2017-09-09T19:53:28.886Z,67.70
2017-09-09T19:55:58.046Z,68.00
2017-09-09T19:58:27.366Z,67.80
2017-09-09T20:00:55.566Z,67.60
2017-09-09T20:03:24.657Z,67.60
2017-09-09T20:05:52.833Z,67.60
2017-09-09T20:08:21.012Z,67.80
2017-09-09T20:10:49.982Z,68.80
2017-09-09T20:13:18.196Z,68.80
2017-09-09T20:15:46.403Z,69.60
2017-09-09T20:18:14.610Z,70.10
2017-09-09T20:20:42.767Z,69.50
2017-09-09T20:23:10.954Z,68.90
2017-09-09T20:25:40.132Z,68.80
2017-09-09T20:28:08.344Z,68.30
2017-09-09T20:30:36.559Z,68.10
2017-09-09T20:33:05.661Z,67.60
2017-09-09T20:35:33.856Z,67.90
2017-09-09T20:38:02.004Z,67.80
2017-09-09T20:40:30.161Z,67.50
2017-09-09T20:42:59.121Z,67.10
2017-09-09T20:45:27.282Z,67.10
2017-09-09T20:47:55.452Z,66.70
2017-09-09T20:50:23.635Z,66.30
2017-09-09T20:52:51.812Z,67.00
2017-09-09T20:55:19.971Z,66.50
2017-09-09T20:57:48.178Z,66.50
2017-09-09T21:00:17.717Z,66.80
2017-09-09T21:02:45.878Z,66.80
2017-09-09T21:05:14.098Z,66.80
2017-09-09T21:07:42.263Z,66.60
2017-09-09T21:10:10.437Z,66.50
2017-09-09T21:12:38.627Z,66.00
2017-09-09T21:15:07.761Z,65.90
2017-09-09T21:17:35.922Z,65.40
2017-09-09T21:20:04.087Z,65.80
2017-09-09T21:22:32.262Z,65.70
2017-09-09T21:25:00.428Z,65.80
2017-09-09T21:27:28.642Z,66.40
2017-09-09T21:29:56.859Z,66.30
2017-09-09T21:32:25.065Z,66.30
2017-09-09T21:34:53.211Z,66.20
2017-09-09T21:37:22.422Z,66.30
2017-09-09T21:39:50.610Z,66.30
2017-09-09T21:42:19.574Z,65.50
2017-09-09T21:44:47.749Z,65.50
2017-09-09T21:47:15.934Z,65.40
2017-09-09T21:49:44.130Z,66.00
2017-09-09T21:52:14.017Z,66.40
2017-09-09T21:54:42.988Z,66.30
2017-09-09T21:57:11.194Z,66.70
2017-09-09T21:59:39.386Z,67.50
2017-09-09T22:02:07.571Z,67.30
2017-09-09T22:04:35.725Z,66.70
2017-09-09T22:07:03.911Z,66.30
2017-09-09T22:09:32.086Z,65.80
2017-09-09T22:12:01.068Z,67.20
2017-09-09T22:14:29.230Z,67.20
2017-09-09T22:16:57.415Z,66.40
2017-09-09T22:19:25.613Z,66.20
2017-09-09T22:21:54.556Z,65.40
2017-09-09T22:24:22.721Z,65.40
2017-09-09T22:26:50.959Z,65.50
2017-09-09T22:29:19.894Z,65.60
2017-09-09T22:31:48.085Z,65.50
2017-09-09T22:34:16.270Z,67.10
2017-09-09T22:36:45.991Z,66.60
2017-09-09T22:39:14.150Z,66.80
2017-09-09T22:41:42.323Z,67.20
2017-09-09T22:44:10.522Z,67.30
2017-09-09T22:46:39.669Z,68.00
2017-09-09T22:49:07.831Z,68.10
2017-09-09T22:51:36.014Z,67.60
2017-09-09T22:54:04.194Z,67.50
2017-09-09T22:56:32.371Z,67.40
2017-09-09T22:59:00.690Z,67.40
2017-09-09T23:01:29.834Z,67.10
2017-09-09T23:03:57.998Z,66.80
2017-09-09T23:06:26.153Z,66.80
2017-09-09T23:08:54.341Z,67.00
2017-09-09T23:11:22.521Z,67.00
2017-09-09T23:13:50.696Z,66.80
2017-09-09T23:16:19.590Z,67.10
2017-09-09T23:18:48.382Z,67.20
2017-09-09T23:21:16.550Z,67.10
2017-09-09T23:23:44.709Z,67.30
2017-09-09T23:26:13.525Z,67.60
2017-09-09T23:28:41.686Z,67.30
2017-09-09T23:31:31.594Z,67.20
2017-09-09T23:34:00.274Z,67.20
2017-09-09T23:36:28.989Z,67.30
2017-09-09T23:38:57.922Z,67.20
2017-09-09T23:41:26.114Z,67.10
2017-09-09T23:43:54.266Z,67.50
2017-09-09T23:46:22.440Z,67.10
2017-09-09T23:48:50.621Z,67.30
2017-09-09T23:51:18.786Z,67.20
2017-09-09T23:53:46.954Z,67.10
2017-09-09T23:56:16.045Z,67.40
2017-09-09T23:58:44.212Z,68.20
